Terminal Aerodrome Forecast
Issued by NWS Wilmington, OH

Current Version | Previous Version | Graphics & Text | Print | Product List | Glossary On
Versions: 1 2 3 4 5 6 7 8 9 10 11 12 13 14 15 16 17 18 19 20 21 22 23 24 25 26
365
FTUS41 KILN 300340 AAA
TAFCMH
TAF AMD
KCMH 300340Z 3004/3024 00000KT P6SM -SHRA FEW050 BKN150
     FM300800 00000KT 4SM BR SCT002
      TEMPO 3009/3012 2SM BR
     FM301300 23005KT P6SM FEW020
     FM301700 23005KT P6SM SCT030 BKN120=

USA.gov is the U.S. government's official web portal to all federal, state and local government web resources and services.